createdAt,value
2023-05-09T00:01:13.547Z,41.72
2023-05-09T00:03:40.413Z,42.00
2023-05-09T00:06:07.139Z,41.88
2023-05-09T00:08:33.663Z,44.27
2023-05-09T00:11:00.063Z,46.72
2023-05-09T00:13:26.435Z,40.15
2023-05-09T00:15:52.885Z,41.45
2023-05-09T00:18:22.794Z,42.85
2023-05-09T00:20:49.938Z,40.70
2023-05-09T00:23:16.685Z,41.92
2023-05-09T00:25:43.198Z,43.67
2023-05-09T00:28:09.475Z,40.33
2023-05-09T00:30:35.856Z,42.25
2023-05-09T00:33:02.454Z,41.37
2023-05-09T00:35:28.838Z,42.95
2023-05-09T00:37:55.098Z,41.67
2023-05-09T00:40:21.487Z,42.60
2023-05-09T00:42:47.846Z,42.70
2023-05-09T00:45:14.413Z,41.57
2023-05-09T00:47:41.209Z,40.63
2023-05-09T00:50:09.099Z,43.72
2023-05-09T00:52:36.345Z,42.10
2023-05-09T00:55:02.846Z,46.88
2023-05-09T00:57:29.263Z,43.83
2023-05-09T00:59:55.617Z,43.33
2023-05-09T01:02:22.189Z,43.95
2023-05-09T01:04:48.570Z,42.13
2023-05-09T01:07:36.490Z,44.40
2023-05-09T01:10:11.479Z,48.47
2023-05-09T01:13:03.095Z,47.25
2023-05-09T01:16:14.469Z,45.20
2023-05-09T01:18:50.341Z,49.13
2023-05-09T01:21:21.594Z,46.50
2023-05-09T01:23:58.051Z,48.83
2023-05-09T01:26:43.772Z,47.47
2023-05-09T01:29:19.078Z,45.05
2023-05-09T01:31:48.012Z,40.35
2023-05-09T01:34:16.654Z,50.70
2023-05-09T01:36:43.933Z,42.00
2023-05-09T01:39:13.877Z,47.38
2023-05-09T01:41:40.910Z,46.60
2023-05-09T01:44:12.121Z,44.83
2023-05-09T01:46:40.176Z,44.75
2023-05-09T01:49:08.244Z,42.33
2023-05-09T01:51:37.352Z,40.95
2023-05-09T01:54:05.518Z,43.35
2023-05-09T01:56:32.546Z,48.10
2023-05-09T01:59:00.731Z,40.30
2023-05-09T02:01:27.963Z,39.50
2023-05-09T02:03:54.345Z,45.13
2023-05-09T02:06:23.059Z,46.13
2023-05-09T02:08:50.232Z,42.28
2023-05-09T02:11:16.847Z,44.55
2023-05-09T02:13:43.222Z,46.73
2023-05-09T02:16:10.060Z,45.20
2023-05-09T02:18:36.369Z,45.53
2023-05-09T02:21:03.421Z,42.65
2023-05-09T02:23:30.499Z,44.20
2023-05-09T02:25:57.329Z,45.37
2023-05-09T02:28:27.099Z,48.17
2023-05-09T02:30:59.875Z,42.35
2023-05-09T02:33:27.205Z,44.70
2023-05-09T02:35:53.970Z,41.63
2023-05-09T02:38:20.768Z,45.37
2023-05-09T02:40:47.787Z,50.42
2023-05-09T02:43:14.076Z,46.92
2023-05-09T02:45:40.620Z,47.35
2023-05-09T02:48:09.024Z,47.47
2023-05-09T02:50:35.820Z,48.03
2023-05-09T02:53:02.081Z,42.75
2023-05-09T02:55:28.436Z,43.03
2023-05-09T02:58:09.117Z,42.42
2023-05-09T03:00:38.799Z,42.92
2023-05-09T03:03:05.139Z,41.70
2023-05-09T03:05:31.505Z,41.17
2023-05-09T03:07:57.827Z,40.10
2023-05-09T03:10:24.106Z,41.78
2023-05-09T03:12:50.419Z,43.22
2023-05-09T03:15:16.911Z,45.20
2023-05-09T03:17:43.287Z,41.05
2023-05-09T03:20:09.857Z,41.40
2023-05-09T03:22:36.470Z,42.40
2023-05-09T03:25:02.804Z,42.08
2023-05-09T03:27:29.192Z,42.57
2023-05-09T03:29:55.446Z,42.38
2023-05-09T03:32:21.748Z,36.33
2023-05-09T03:34:48.027Z,36.35
2023-05-09T03:37:14.421Z,40.13
2023-05-09T03:39:40.755Z,38.37
2023-05-09T03:42:07.086Z,35.65
2023-05-09T03:44:33.374Z,37.05
2023-05-09T03:46:59.891Z,39.13
2023-05-09T03:49:26.354Z,38.85
2023-05-09T03:51:52.712Z,40.57
2023-05-09T03:54:19.052Z,37.45
2023-05-09T03:56:46.513Z,37.28
2023-05-09T03:59:12.819Z,36.00
2023-05-09T04:01:40.322Z,39.00
2023-05-09T04:04:06.819Z,41.23
2023-05-09T04:06:33.896Z,35.47
2023-05-09T04:09:00.697Z,34.90
2023-05-09T04:11:27.015Z,35.10
2023-05-09T04:13:54.551Z,35.42
2023-05-09T04:16:20.912Z,32.33
2023-05-09T04:18:47.254Z,34.65
2023-05-09T04:21:13.536Z,34.28
2023-05-09T04:23:39.856Z,35.28
2023-05-09T04:26:06.179Z,35.40
2023-05-09T04:28:32.472Z,37.83
2023-05-09T04:30:58.911Z,38.35
2023-05-09T04:33:25.278Z,35.05
2023-05-09T04:35:51.570Z,34.75
2023-05-09T04:38:17.825Z,37.47
2023-05-09T04:40:44.120Z,35.23
2023-05-09T04:43:10.426Z,34.55
2023-05-09T04:45:36.722Z,32.60
2023-05-09T04:48:03.132Z,31.58
2023-05-09T04:50:29.614Z,35.33
2023-05-09T04:52:55.888Z,38.43
2023-05-09T04:55:22.190Z,29.60
2023-05-09T04:57:48.466Z,34.90
2023-05-09T05:00:15.002Z,33.03
2023-05-09T05:02:41.322Z,31.90
2023-05-09T05:05:12.082Z,32.30
2023-05-09T05:07:50.561Z,30.80
2023-05-09T05:10:16.954Z,31.40
2023-05-09T05:12:43.265Z,27.70
2023-05-09T05:15:10.043Z,33.05
2023-05-09T05:17:36.441Z,28.97
2023-05-09T05:20:03.035Z,24.77
2023-05-09T05:22:31.541Z,30.38
2023-05-09T05:24:58.955Z,27.77
2023-05-09T05:27:25.375Z,26.00
2023-05-09T05:29:51.675Z,29.30
2023-05-09T05:32:17.974Z,27.58
2023-05-09T05:34:44.298Z,25.45
2023-05-09T05:37:10.654Z,30.85
2023-05-09T05:39:37.200Z,25.60
2023-05-09T05:42:03.715Z,28.20
2023-05-09T05:44:30.036Z,26.20
2023-05-09T05:46:56.322Z,30.90
2023-05-09T05:49:22.763Z,26.08
2023-05-09T05:51:49.420Z,26.17
2023-05-09T05:54:15.702Z,25.37
2023-05-09T05:56:41.985Z,22.90
2023-05-09T05:59:08.393Z,23.00
2023-05-09T06:01:34.760Z,24.38
2023-05-09T06:04:02.179Z,24.77
2023-05-09T06:06:28.646Z,26.80
2023-05-09T06:08:55.034Z,27.27
2023-05-09T06:11:21.448Z,24.95
2023-05-09T06:13:47.815Z,24.23
2023-05-09T06:16:19.223Z,21.05
2023-05-09T06:18:46.228Z,22.37
2023-05-09T06:21:12.826Z,23.80
2023-05-09T06:23:42.648Z,26.08
2023-05-09T06:26:17.199Z,26.15
2023-05-09T06:28:43.520Z,20.92
2023-05-09T06:31:10.080Z,24.60
2023-05-09T06:33:36.360Z,24.42
2023-05-09T06:36:02.608Z,21.35
2023-05-09T06:38:28.912Z,23.30
2023-05-09T06:40:55.217Z,24.08
2023-05-09T06:43:21.725Z,25.43
2023-05-09T06:45:48.096Z,21.02
2023-05-09T06:48:14.457Z,20.70
2023-05-09T06:50:40.895Z,22.20
2023-05-09T06:53:07.447Z,23.35
2023-05-09T06:55:33.903Z,23.80
2023-05-09T06:58:00.366Z,20.83
2023-05-09T07:00:26.835Z,23.73
2023-05-09T07:02:53.209Z,24.52
2023-05-09T07:05:19.671Z,24.65
2023-05-09T07:07:46.032Z,19.30
2023-05-09T07:10:12.801Z,26.70
2023-05-09T07:12:40.387Z,26.15
2023-05-09T07:15:07.697Z,23.63
2023-05-09T07:17:34.022Z,22.63
2023-05-09T07:20:00.335Z,23.93
2023-05-09T07:22:27.788Z,24.38
2023-05-09T07:24:55.785Z,21.80
2023-05-09T07:27:22.059Z,23.45
2023-05-09T07:29:48.797Z,23.50
2023-05-09T07:32:15.155Z,22.43
2023-05-09T07:34:41.648Z,24.30
2023-05-09T07:37:08.063Z,25.45
2023-05-09T07:39:34.392Z,22.45
2023-05-09T07:42:00.669Z,23.70
2023-05-09T07:44:27.001Z,23.47
2023-05-09T07:46:53.276Z,24.38
2023-05-09T07:49:19.597Z,20.95
2023-05-09T07:51:45.886Z,23.35
2023-05-09T07:54:12.201Z,23.45
2023-05-09T07:56:38.502Z,22.87
2023-05-09T07:59:05.155Z,19.55
2023-05-09T08:01:31.452Z,21.40
2023-05-09T08:03:57.979Z,19.75
2023-05-09T08:06:25.388Z,23.48
2023-05-09T08:08:52.179Z,22.30
2023-05-09T08:11:18.534Z,21.00
2023-05-09T08:13:44.816Z,22.33
2023-05-09T08:16:11.196Z,20.15
2023-05-09T08:18:37.544Z,18.45
2023-05-09T08:21:03.874Z,19.87
2023-05-09T08:23:30.162Z,20.10
2023-05-09T08:25:56.624Z,20.80
2023-05-09T08:28:22.966Z,18.05
2023-05-09T08:30:49.994Z,19.98
2023-05-09T08:33:16.394Z,17.97
2023-05-09T08:35:42.766Z,17.42
2023-05-09T08:38:09.194Z,17.65
2023-05-09T08:40:36.537Z,19.67
2023-05-09T08:43:05.957Z,17.67
2023-05-09T08:45:38.971Z,19.53
2023-05-09T08:48:06.714Z,15.65
2023-05-09T08:50:33.091Z,16.45
2023-05-09T08:52:59.403Z,15.88
2023-05-09T08:55:26.323Z,14.57
2023-05-09T08:57:52.894Z,14.20
2023-05-09T09:00:20.624Z,15.25
2023-05-09T09:02:47.602Z,15.13
2023-05-09T09:05:34.177Z,15.65
2023-05-09T09:08:00.661Z,12.48
2023-05-09T09:10:30.891Z,12.60
2023-05-09T09:12:58.946Z,13.70
2023-05-09T09:15:29.501Z,17.23
2023-05-09T09:18:00.375Z,12.27
2023-05-09T09:20:31.713Z,11.07
2023-05-09T09:23:00.084Z,11.20
2023-05-09T09:25:27.439Z,11.85
2023-05-09T09:27:53.789Z,13.40
2023-05-09T09:30:24.009Z,11.57
2023-05-09T09:32:52.795Z,12.02
2023-05-09T09:35:19.087Z,12.87
2023-05-09T09:37:45.751Z,12.38
2023-05-09T09:40:13.041Z,13.20
2023-05-09T09:42:42.520Z,12.90
2023-05-09T09:45:13.073Z,13.70
2023-05-09T09:47:40.638Z,11.77
2023-05-09T09:50:15.104Z,13.23
2023-05-09T09:52:43.352Z,14.18
2023-05-09T09:55:09.795Z,10.27
2023-05-09T09:57:38.613Z,12.77
2023-05-09T10:00:06.293Z,14.70
2023-05-09T10:02:32.869Z,11.35
2023-05-09T10:05:09.171Z,13.15
2023-05-09T10:07:35.862Z,12.75
2023-05-09T10:10:02.942Z,12.25
2023-05-09T10:12:29.343Z,11.77
2023-05-09T10:14:55.784Z,12.52
2023-05-09T10:17:23.179Z,12.77
2023-05-09T10:19:50.996Z,12.27
2023-05-09T10:22:18.459Z,15.05
2023-05-09T10:25:00.966Z,12.40
2023-05-09T10:27:28.647Z,10.73
2023-05-09T10:30:13.106Z,11.95
2023-05-09T10:33:01.487Z,14.15
2023-05-09T10:35:32.758Z,11.07
2023-05-09T10:38:01.460Z,12.53
2023-05-09T10:40:28.528Z,11.40
2023-05-09T10:42:54.922Z,10.70
2023-05-09T10:45:22.380Z,10.80
2023-05-09T10:47:50.947Z,10.35
2023-05-09T10:50:18.662Z,10.20
2023-05-09T10:53:03.341Z,11.63
2023-05-09T10:55:59.303Z,12.57
2023-05-09T10:58:27.856Z,9.70
2023-05-09T11:00:57.291Z,10.77
2023-05-09T11:03:25.234Z,10.97
2023-05-09T11:05:58.669Z,9.60
2023-05-09T11:08:26.316Z,9.13
2023-05-09T11:10:57.175Z,10.00
2023-05-09T11:13:25.198Z,11.25
2023-05-09T11:16:00.811Z,9.73
2023-05-09T11:18:31.552Z,10.02
2023-05-09T11:20:58.716Z,9.85
2023-05-09T11:23:30.281Z,8.95
2023-05-09T11:26:08.200Z,8.23
2023-05-09T11:28:37.028Z,8.67
2023-05-09T11:31:09.055Z,8.95
2023-05-09T11:33:36.765Z,9.40
2023-05-09T11:36:27.555Z,9.63
2023-05-09T11:39:08.101Z,13.43
2023-05-09T11:41:45.648Z,12.73
2023-05-09T11:44:20.346Z,12.98
2023-05-09T11:46:48.133Z,9.27
2023-05-09T11:49:15.502Z,10.02
2023-05-09T11:51:41.800Z,9.55
2023-05-09T11:54:09.322Z,10.07
2023-05-09T11:56:37.831Z,7.35
2023-05-09T11:59:04.380Z,8.88
2023-05-09T12:01:30.854Z,8.57
2023-05-09T12:04:01.930Z,9.85
2023-05-09T12:06:28.340Z,10.70
2023-05-09T12:08:55.736Z,9.75
2023-05-09T12:11:22.027Z,9.05
2023-05-09T12:13:50.327Z,9.27
2023-05-09T12:16:17.828Z,9.48
2023-05-09T12:18:53.984Z,11.20
2023-05-09T12:21:21.114Z,9.55
2023-05-09T12:23:50.741Z,9.88
2023-05-09T12:26:18.172Z,10.68
2023-05-09T12:28:44.628Z,10.60
2023-05-09T12:31:11.408Z,9.90
2023-05-09T12:33:38.815Z,12.35
2023-05-09T12:36:08.434Z,9.80
2023-05-09T12:38:34.741Z,9.48
2023-05-09T12:41:18.246Z,9.88
2023-05-09T12:43:55.299Z,11.60
2023-05-09T12:46:21.907Z,11.82
2023-05-09T12:48:48.306Z,10.27
2023-05-09T12:51:21.686Z,10.60
2023-05-09T12:53:48.678Z,9.60
2023-05-09T12:56:19.366Z,8.77
2023-05-09T12:58:49.109Z,11.07
2023-05-09T13:01:15.770Z,9.63
2023-05-09T13:03:42.227Z,10.35
2023-05-09T13:06:13.693Z,9.32
2023-05-09T13:08:40.917Z,10.67
2023-05-09T13:13:41.074Z,9.70
2023-05-09T13:16:08.867Z,12.60
2023-05-09T13:18:36.304Z,10.68
2023-05-09T13:21:02.695Z,8.33
2023-05-09T13:23:28.989Z,9.27
2023-05-09T13:25:55.340Z,9.05
2023-05-09T13:28:21.656Z,10.00
2023-05-09T13:30:48.151Z,9.73
2023-05-09T13:33:25.123Z,10.53
2023-05-09T13:35:51.937Z,9.20
2023-05-09T13:38:18.222Z,10.57
2023-05-09T13:40:44.556Z,9.95
2023-05-09T13:43:11.055Z,9.63
2023-05-09T13:45:37.385Z,10.60
2023-05-09T13:48:04.114Z,10.23
2023-05-09T13:50:30.439Z,9.90
2023-05-09T13:52:56.755Z,9.98
2023-05-09T13:55:23.068Z,9.57
2023-05-09T13:57:49.440Z,9.17
2023-05-09T14:00:15.985Z,9.07
2023-05-09T14:02:42.433Z,9.50
2023-05-09T14:05:09.071Z,9.90
2023-05-09T14:07:35.392Z,7.97
2023-05-09T14:10:10.845Z,10.50
2023-05-09T14:12:37.670Z,8.45
2023-05-09T14:15:04.269Z,7.85
2023-05-09T14:17:30.558Z,6.07
2023-05-09T14:19:56.937Z,8.43
2023-05-09T14:22:23.273Z,6.97
2023-05-09T14:24:49.686Z,7.60
2023-05-09T14:27:16.340Z,6.05
2023-05-09T14:29:42.642Z,6.03
2023-05-09T14:32:09.170Z,9.82
2023-05-09T14:34:35.484Z,7.33
2023-05-09T14:37:01.810Z,6.95
2023-05-09T14:39:28.131Z,7.38
2023-05-09T14:41:54.482Z,6.90
2023-05-09T14:44:20.812Z,6.10
2023-05-09T14:46:47.222Z,7.33
2023-05-09T14:49:13.667Z,6.15
2023-05-09T14:51:40.062Z,6.72
2023-05-09T14:54:06.374Z,7.45
2023-05-09T14:56:32.922Z,6.78
2023-05-09T14:58:59.210Z,7.20
2023-05-09T15:01:25.629Z,6.85
2023-05-09T15:03:52.009Z,7.35
2023-05-09T15:06:18.395Z,6.65
2023-05-09T15:08:44.811Z,6.55
2023-05-09T15:11:11.216Z,6.10
2023-05-09T15:13:37.575Z,6.95
2023-05-09T15:16:04.838Z,6.95
2023-05-09T15:18:31.100Z,7.05
2023-05-09T15:20:57.932Z,6.80
2023-05-09T15:23:24.404Z,6.90
2023-05-09T15:25:50.756Z,6.63
2023-05-09T15:28:17.069Z,7.30
2023-05-09T15:30:43.401Z,6.30
2023-05-09T15:33:09.840Z,7.32
2023-05-09T15:35:37.113Z,6.60
2023-05-09T15:38:03.511Z,7.38
2023-05-09T15:40:29.818Z,6.47
2023-05-09T15:42:56.135Z,6.28
2023-05-09T15:45:22.473Z,7.80
2023-05-09T15:47:48.877Z,7.10
2023-05-09T15:50:15.439Z,7.28
2023-05-09T15:52:41.834Z,8.30
2023-05-09T15:55:09.133Z,7.57
2023-05-09T15:57:35.465Z,7.13
2023-05-09T16:00:01.944Z,6.97
2023-05-09T16:02:28.518Z,7.90
2023-05-09T16:04:55.030Z,6.47
2023-05-09T16:07:21.539Z,7.28
2023-05-09T16:09:47.873Z,6.60
2023-05-09T16:12:14.269Z,7.27
2023-05-09T16:14:40.610Z,7.22
2023-05-09T16:17:06.976Z,7.55
2023-05-09T16:19:35.718Z,7.18
2023-05-09T16:22:02.235Z,7.38
2023-05-09T16:24:28.567Z,8.40
2023-05-09T16:26:54.895Z,7.50
2023-05-09T16:29:21.179Z,8.30
2023-05-09T16:31:47.500Z,8.73
2023-05-09T16:34:13.985Z,9.27
2023-05-09T16:36:40.431Z,6.53
2023-05-09T16:39:06.957Z,6.63
2023-05-09T16:41:33.249Z,6.47
2023-05-09T16:43:59.519Z,6.20
2023-05-09T16:46:25.998Z,6.68
2023-05-09T16:48:52.538Z,6.50
2023-05-09T16:51:19.899Z,6.28
2023-05-09T16:53:46.305Z,6.88
2023-05-09T16:56:12.921Z,5.75
2023-05-09T16:58:39.411Z,6.80
2023-05-09T17:01:05.878Z,6.00
2023-05-09T17:03:32.205Z,6.10
2023-05-09T17:05:58.619Z,6.25
2023-05-09T17:08:25.028Z,5.72
2023-05-09T17:10:51.352Z,6.30
2023-05-09T17:13:18.948Z,6.00
2023-05-09T17:15:45.437Z,6.63
2023-05-09T17:18:13.597Z,7.82
2023-05-09T17:20:43.365Z,6.03
2023-05-09T17:23:09.671Z,6.32
2023-05-09T17:25:36.226Z,6.57
2023-05-09T17:28:02.773Z,8.30
2023-05-09T17:30:29.172Z,6.30
2023-05-09T17:32:55.497Z,6.43
2023-05-09T17:35:22.465Z,7.85
2023-05-09T17:37:48.744Z,6.20
2023-05-09T17:40:15.196Z,6.97
2023-05-09T17:42:41.631Z,7.53
2023-05-09T17:45:09.594Z,8.27
2023-05-09T17:47:35.884Z,6.15
2023-05-09T17:50:02.262Z,5.17
2023-05-09T17:52:29.557Z,5.63
2023-05-09T17:54:55.904Z,5.10
2023-05-09T17:57:25.413Z,6.10
2023-05-09T17:59:51.725Z,5.50
2023-05-09T18:02:18.065Z,6.10
2023-05-09T18:04:44.358Z,5.28
2023-05-09T18:07:10.687Z,7.45
2023-05-09T18:09:37.026Z,5.65
2023-05-09T18:12:03.522Z,5.22
2023-05-09T18:14:29.825Z,6.67
2023-05-09T18:16:56.144Z,5.75
2023-05-09T18:19:22.472Z,5.25
2023-05-09T18:21:49.246Z,5.38
2023-05-09T18:24:17.023Z,4.75
2023-05-09T18:26:43.680Z,7.90
2023-05-09T18:29:10.972Z,5.18
2023-05-09T18:31:37.314Z,4.70
2023-05-09T18:34:03.838Z,5.57
2023-05-09T18:36:30.164Z,6.28
2023-05-09T18:38:56.517Z,6.00
2023-05-09T18:41:22.828Z,6.25
2023-05-09T18:43:49.179Z,4.75
2023-05-09T18:46:16.781Z,3.42
2023-05-09T18:48:44.601Z,3.40
2023-05-09T18:51:11.695Z,3.30
2023-05-09T18:53:38.205Z,4.60
2023-05-09T18:56:04.812Z,3.60
2023-05-09T18:58:31.138Z,3.40
2023-05-09T19:00:57.550Z,4.18
2023-05-09T19:03:24.101Z,4.57
2023-05-09T19:05:50.922Z,3.35
2023-05-09T19:08:17.204Z,4.97
2023-05-09T19:10:43.474Z,5.85
2023-05-09T19:13:09.921Z,3.10
2023-05-09T19:15:36.389Z,4.87
2023-05-09T19:18:03.200Z,3.45
2023-05-09T19:20:29.812Z,4.80
2023-05-09T19:22:57.272Z,3.17
2023-05-09T19:25:23.998Z,2.63
2023-05-09T19:27:50.321Z,3.13
2023-05-09T19:30:17.008Z,3.17
2023-05-09T19:32:44.007Z,3.58
2023-05-09T19:35:10.681Z,2.95
2023-05-09T19:37:37.425Z,3.78
2023-05-09T19:40:04.810Z,3.50
2023-05-09T19:42:35.045Z,3.45
2023-05-09T19:45:01.701Z,3.45
2023-05-09T19:47:28.022Z,2.92
2023-05-09T19:49:54.334Z,3.35
2023-05-09T19:52:22.216Z,2.67
2023-05-09T19:54:48.708Z,3.63
2023-05-09T19:57:15.013Z,3.55
2023-05-09T19:59:41.300Z,4.20
2023-05-09T20:02:07.687Z,4.82
2023-05-09T20:04:35.695Z,4.53
2023-05-09T20:07:02.892Z,4.85
2023-05-09T20:09:29.243Z,6.68
2023-05-09T20:11:55.679Z,5.10
2023-05-09T20:14:22.580Z,5.53
2023-05-09T20:16:48.898Z,5.30
2023-05-09T20:19:15.406Z,5.05
2023-05-09T20:21:41.778Z,5.63
2023-05-09T20:24:08.701Z,4.55
2023-05-09T20:26:35.043Z,5.85
2023-05-09T20:29:01.439Z,4.30
2023-05-09T20:31:28.529Z,5.70
2023-05-09T20:33:54.975Z,6.13
2023-05-09T20:36:21.346Z,5.20
2023-05-09T20:38:47.644Z,4.32
2023-05-09T20:41:14.016Z,5.47
2023-05-09T20:43:40.419Z,5.20
2023-05-09T20:46:06.807Z,3.83
2023-05-09T20:48:33.155Z,5.13
2023-05-09T20:50:59.507Z,4.88
2023-05-09T20:53:25.914Z,4.83
2023-05-09T20:55:53.357Z,5.10
2023-05-09T20:58:19.685Z,4.90
2023-05-09T21:00:46.088Z,5.72
2023-05-09T21:03:16.241Z,7.35
2023-05-09T21:05:42.695Z,6.93
2023-05-09T21:08:09.008Z,5.72
2023-05-09T21:10:35.383Z,7.57
2023-05-09T21:13:01.762Z,7.03
2023-05-09T21:15:28.080Z,8.00
2023-05-09T21:17:54.431Z,7.00
2023-05-09T21:20:21.008Z,7.68
2023-05-09T21:22:47.717Z,8.73
2023-05-09T21:25:14.230Z,8.77
2023-05-09T21:27:40.601Z,8.77
2023-05-09T21:30:07.931Z,10.77
2023-05-09T21:32:34.311Z,8.98
2023-05-09T21:35:01.612Z,9.93
2023-05-09T21:37:28.049Z,10.88
2023-05-09T21:39:54.762Z,12.60
2023-05-09T21:42:21.083Z,13.00
2023-05-09T21:44:47.418Z,11.80
2023-05-09T21:47:13.838Z,13.48
2023-05-09T21:49:40.183Z,11.18
2023-05-09T21:52:06.518Z,15.25
2023-05-09T21:54:32.922Z,12.77
2023-05-09T21:56:59.335Z,15.75
2023-05-09T21:59:26.379Z,13.65
2023-05-09T22:01:52.673Z,15.20
2023-05-09T22:04:18.966Z,16.65
2023-05-09T22:06:45.251Z,15.17
2023-05-09T22:09:11.563Z,15.30
2023-05-09T22:11:37.893Z,14.50
2023-05-09T22:14:04.252Z,20.02
2023-05-09T22:16:30.526Z,15.25
2023-05-09T22:18:56.854Z,16.80
2023-05-09T22:21:23.154Z,18.85
2023-05-09T22:23:49.496Z,18.13
2023-05-09T22:26:15.766Z,16.50
2023-05-09T22:28:42.017Z,20.60
2023-05-09T22:31:08.355Z,18.77
2023-05-09T22:33:34.774Z,18.13
2023-05-09T22:36:01.156Z,19.33
2023-05-09T22:38:27.466Z,20.55
2023-05-09T22:40:53.755Z,21.75
2023-05-09T22:43:20.038Z,19.70
2023-05-09T22:45:46.342Z,20.13
2023-05-09T22:48:12.692Z,19.65
2023-05-09T22:50:39.062Z,23.15
2023-05-09T22:53:05.407Z,20.85
2023-05-09T22:55:31.806Z,21.27
2023-05-09T22:57:58.310Z,21.45
2023-05-09T23:00:24.643Z,22.23
2023-05-09T23:02:50.991Z,24.15
2023-05-09T23:05:17.437Z,21.13
2023-05-09T23:07:44.626Z,21.60
2023-05-09T23:10:11.038Z,23.63
2023-05-09T23:12:37.423Z,23.73
2023-05-09T23:15:05.357Z,24.10
2023-05-09T23:17:31.703Z,26.33
2023-05-09T23:19:58.030Z,22.97
2023-05-09T23:22:24.364Z,25.70
2023-05-09T23:24:50.949Z,24.65
2023-05-09T23:27:17.224Z,24.92
2023-05-09T23:29:43.554Z,23.80
2023-05-09T23:32:10.396Z,26.23
2023-05-09T23:34:36.735Z,25.17
2023-05-09T23:37:04.386Z,25.42
2023-05-09T23:39:31.394Z,25.48
2023-05-09T23:41:57.958Z,27.90
2023-05-09T23:44:24.290Z,25.97
2023-05-09T23:46:50.628Z,25.00
2023-05-09T23:49:17.126Z,25.58
2023-05-09T23:51:43.503Z,27.20
2023-05-09T23:54:09.886Z,27.27
2023-05-09T23:56:36.179Z,27.47
2023-05-09T23:59:02.552Z,29.35
